Time;durP1;ratioP1;P1;durP2;ratioP2;P2;SDS_P1;SDS_P2;PMS_P1;PMS_P2;Temp;Humidity;BMP_temperature;BMP_pressure;BME280_temperature;BME280_humidity;BME280_pressure;Samples;Min_cycle;Max_cycle;Signal;HPM_P1;HPM_P2
2022/02/27 00:00:15;;;;;;;11.45;7.35;;;;;;;3.77;52.58;100667.91;1743764;82;21159;-66
2022/02/27 00:02:42;;;;;;;9.25;7.33;;;;;;;3.78;52.52;100663.85;1746035;80;21000;-64
2022/02/27 00:05:09;;;;;;;11.50;8.93;;;;;;;3.79;52.56;100666.02;1745120;80;20982;-66
2022/02/27 00:07:37;;;;;;;17.27;10.72;;;;;;;3.78;53.01;100666.48;1747339;80;20974;-64
2022/02/27 00:10:05;;;;;;;13.83;9.83;;;;;;;3.78;53.65;100661.72;1749292;80;21398;-65
2022/02/27 00:12:32;;;;;;;13.50;9.70;;;;;;;3.75;54.06;100668.03;1748399;80;21137;-64
2022/02/27 00:14:59;;;;;;;14.90;10.88;;;;;;;3.73;54.06;100658.89;1743704;82;20928;-66
2022/02/27 00:17:25;;;;;;;15.50;10.60;;;;;;;3.73;54.05;100659.36;1746578;80;20999;-66
2022/02/27 00:19:52;;;;;;;15.32;10.48;;;;;;;3.70;54.40;100655.14;1770442;80;20956;-66
2022/02/27 00:22:18;;;;;;;14.58;10.65;;;;;;;3.67;54.80;100659.31;1771879;80;21474;-65
2022/02/27 00:24:44;;;;;;;13.40;10.28;;;;;;;3.64;54.73;100656.87;1770019;80;21145;-63
2022/02/27 00:27:11;;;;;;;13.78;8.63;;;;;;;3.60;54.66;100651.88;1763647;80;20936;-63
2022/02/27 00:29:38;;;;;;;14.23;9.58;;;;;;;3.57;54.61;100651.60;1746187;80;20896;-65
2022/02/27 00:32:06;;;;;;;17.62;12.37;;;;;;;3.53;54.59;100655.38;1747686;80;21522;-65
2022/02/27 00:34:32;;;;;;;18.77;13.60;;;;;;;3.50;55.16;100652.94;1742407;82;20885;-65
2022/02/27 00:37:01;;;;;;;17.92;12.37;;;;;;;3.45;56.03;100648.91;1742592;82;21161;-64
2022/02/27 00:39:27;;;;;;;18.70;12.85;;;;;;;3.37;56.64;100653.34;1743679;81;20929;-63
2022/02/27 00:41:54;;;;;;;16.65;10.90;;;;;;;3.32;56.82;100649.31;1745215;80;21011;-64
2022/02/27 00:44:20;;;;;;;14.15;10.13;;;;;;;3.28;56.84;100652.62;1760088;80;21481;-66
2022/02/27 00:46:46;;;;;;;15.40;10.05;;;;;;;3.26;56.69;100653.66;1753571;80;20955;-65
2022/02/27 00:49:13;;;;;;;17.85;13.13;;;;;;;3.24;56.63;100648.48;1737470;81;21267;-66
2022/02/27 00:51:39;;;;;;;17.55;12.40;;;;;;;3.24;56.84;100651.11;1758614;81;21676;-64
2022/02/27 00:54:07;;;;;;;22.58;14.45;;;;;;;3.22;57.62;100645.10;1748980;81;20969;-65
2022/02/27 00:56:35;;;;;;;24.20;14.73;;;;;;;3.18;57.81;100640.95;1748498;81;20999;-64
2022/02/27 00:59:02;;;;;;;26.50;16.55;;;;;;;3.15;58.05;100639.86;1754242;81;20911;-63
2022/02/27 01:01:29;;;;;;;23.70;16.10;;;;;;;3.13;58.47;100642.21;1757368;81;21796;-65
2022/02/27 01:03:56;;;;;;;26.33;16.50;;;;;;;3.09;58.83;100646.80;1762714;81;21553;-64
2022/02/27 01:06:23;;;;;;;22.87;15.30;;;;;;;3.06;59.04;100646.53;1763937;81;20939;-64
2022/02/27 01:08:50;;;;;;;17.70;13.53;;;;;;;3.03;59.30;100643.23;1756606;81;20923;-64
2022/02/27 01:11:17;;;;;;;20.80;13.83;;;;;;;2.99;59.40;100647.85;1762562;81;20979;-63
2022/02/27 01:13:44;;;;;;;22.37;11.95;;;;;;;2.96;59.47;100638.83;1757898;81;21237;-66
2022/02/27 01:16:12;;;;;;;19.85;11.48;;;;;;;2.95;59.41;100638.91;1755707;81;21521;-66
2022/02/27 01:18:38;;;;;;;22.32;13.50;;;;;;;2.92;59.30;100637.81;1738957;81;20943;-64
2022/02/27 01:21:06;;;;;;;15.83;11.18;;;;;;;2.91;59.35;100639.59;1756837;81;20923;-66
2022/02/27 01:23:33;;;;;;;22.65;13.15;;;;;;;2.90;59.55;100644.92;1760693;81;20848;-66
2022/02/27 01:26:00;;;;;;;17.82;11.80;;;;;;;2.89;59.58;100638.00;1763435;80;21152;-64
2022/02/27 01:28:26;;;;;;;16.12;11.73;;;;;;;2.87;59.76;100633.27;1757233;81;20921;-64
2022/02/27 01:30:54;;;;;;;15.43;10.15;;;;;;;2.87;59.77;100634.59;1762600;81;20947;-65
2022/02/27 01:33:20;;;;;;;15.88;10.80;;;;;;;2.87;59.90;100635.44;1763412;80;20915;-65
2022/02/27 01:35:46;;;;;;;15.55;10.60;;;;;;;2.86;59.94;100636.40;1752296;81;21015;-62
2022/02/27 01:38:14;;;;;;;20.50;13.50;;;;;;;2.86;59.91;100634.23;1748162;81;21156;-63
2022/02/27 01:40:40;;;;;;;21.50;14.45;;;;;;;2.86;60.22;100632.92;1722721;81;21521;-65
2022/02/27 01:43:06;;;;;;;19.65;14.23;;;;;;;2.85;60.86;100635.16;1755067;81;20987;-64
2022/02/27 01:45:33;;;;;;;21.20;13.90;;;;;;;2.83;61.31;100635.73;1755853;81;20901;-63
2022/02/27 01:48:00;;;;;;;17.92;11.93;;;;;;;2.78;61.53;100630.77;1749175;81;20860;-66
2022/02/27 01:50:28;;;;;;;15.93;10.98;;;;;;;2.76;61.62;100635.73;1725775;81;21185;-62
2022/02/27 01:52:54;;;;;;;19.77;14.15;;;;;;;2.76;61.60;100637.05;1748006;81;21078;-63
2022/02/27 01:55:21;;;;;;;17.10;12.10;;;;;;;2.76;61.57;100633.11;1757158;81;20849;-63
2022/02/27 01:57:47;;;;;;;19.10;13.70;;;;;;;2.75;61.82;100640.14;1750131;81;20956;-64
2022/02/27 02:00:15;;;;;;;22.32;14.47;;;;;;;2.74;62.12;100643.69;1700026;82;21430;-65
2022/02/27 02:02:45;;;;;;;18.30;12.35;;;;;;;2.71;62.42;100654.88;1744231;81;21800;-62
2022/02/27 02:05:13;;;;;;;20.37;12.63;;;;;;;2.66;62.67;100651.19;1757207;81;20979;-64
2022/02/27 02:07:40;;;;;;;15.58;11.00;;;;;;;2.64;62.81;100649.59;1752235;81;20967;-63
2022/02/27 02:10:09;;;;;;;13.05;8.35;;;;;;;2.61;62.76;100644.05;1737831;82;20947;-64
2022/02/27 02:12:38;;;;;;;11.35;8.00;;;;;;;2.61;62.55;100648.00;1750666;81;21483;-64
2022/02/27 02:15:07;;;;;;;16.45;10.53;;;;;;;2.63;62.35;100647.92;1757476;81;21139;-63
2022/02/27 02:17:35;;;;;;;12.53;8.65;;;;;;;2.66;62.62;100654.31;1733835;81;20931;-65
2022/02/27 02:20:04;;;;;;;10.70;8.60;;;;;;;2.65;62.70;100646.89;1724473;81;20926;-63
2022/02/27 02:22:31;;;;;;;17.05;10.65;;;;;;;2.66;62.57;100651.69;1732127;81;20893;-63
2022/02/27 02:24:57;;;;;;;11.68;8.88;;;;;;;2.67;62.60;100659.46;1735328;81;20947;-63
2022/02/27 02:27:24;;;;;;;11.93;8.30;;;;;;;2.69;62.80;100658.05;1749478;81;21147;-65
2022/02/27 02:29:52;;;;;;;17.00;9.00;;;;;;;2.71;62.65;100658.82;1749646;81;21014;-63
2022/02/27 02:32:19;;;;;;;11.00;8.15;;;;;;;2.71;62.47;100660.95;1752496;81;20988;-63
2022/02/27 02:34:46;;;;;;;16.20;10.50;;;;;;;2.72;62.41;100663.13;1756486;81;21571;-65
2022/02/27 02:37:12;;;;;;;14.47;10.35;;;;;;;2.73;62.43;100667.45;1747021;81;21008;-62
2022/02/27 02:39:39;;;;;;;12.65;9.18;;;;;;;2.73;62.75;100663.05;1754359;81;21221;-65
2022/02/27 02:42:07;;;;;;;11.53;8.90;;;;;;;2.72;62.88;100665.75;1757308;81;20990;-62
2022/02/27 02:44:38;;;;;;;10.30;7.53;;;;;;;2.71;62.90;100662.77;1753950;80;20962;-63
2022/02/27 02:47:05;;;;;;;11.55;7.60;;;;;;;2.71;62.89;100674.09;1741290;81;21099;-64
2022/02/27 02:49:32;;;;;;;10.70;7.95;;;;;;;2.71;62.88;100670.64;1700031;84;20911;-65
2022/02/27 02:51:59;;;;;;;10.00;6.72;;;;;;;2.70;62.94;100675.52;1759870;80;21149;-63
2022/02/27 02:54:26;;;;;;;9.43;7.37;;;;;;;2.70;63.02;100680.30;1771064;80;20935;-63
2022/02/27 02:56:52;;;;;;;11.73;7.67;;;;;;;2.71;63.07;100677.22;1766832;80;20964;-62
2022/02/27 02:59:23;;;;;;;10.38;7.28;;;;;;;2.71;63.22;100678.53;1746485;80;21015;-64
2022/02/27 03:01:47;;;;;;;12.53;7.95;;;;;;;2.70;63.33;100682.93;1685027;83;21040;-65
2022/02/27 03:04:13;;;;;;;12.70;8.25;;;;;;;2.69;63.41;100673.81;1758439;80;22196;-63
2022/02/27 03:06:40;;;;;;;12.68;8.68;;;;;;;2.69;63.72;100672.49;1746738;80;21431;-65
2022/02/27 03:09:06;;;;;;;13.45;7.78;;;;;;;2.68;64.06;100683.96;1744075;80;21061;-64
2022/02/27 03:11:33;;;;;;;10.48;7.53;;;;;;;2.68;64.43;100689.22;1703872;84;21081;-62
2022/02/27 03:14:01;;;;;;;7.42;6.05;;;;;;;2.66;64.66;100689.78;1700111;84;21474;-65
2022/02/27 03:16:28;;;;;;;7.97;6.10;;;;;;;2.65;64.69;100694.19;1766245;80;21494;-62
2022/02/27 03:18:55;;;;;;;8.53;5.40;;;;;;;2.66;64.77;100684.53;1768989;80;21556;-65
2022/02/27 03:21:22;;;;;;;8.95;5.80;;;;;;;2.69;64.80;100688.27;1769821;80;21074;-63
2022/02/27 03:23:52;;;;;;;9.10;5.60;;;;;;;2.69;64.80;100686.95;1755717;80;21053;-63
2022/02/27 03:26:16;;;;;;;8.70;6.12;;;;;;;2.70;64.83;100692.13;1754164;80;21028;-65
2022/02/27 03:28:44;;;;;;;12.55;6.45;;;;;;;2.73;64.87;100692.41;1743849;82;21147;-65
2022/02/27 03:31:10;;;;;;;13.80;6.62;;;;;;;2.73;64.97;100700.30;1745883;80;21487;-64
2022/02/27 03:33:37;;;;;;;9.80;6.85;;;;;;;2.73;65.00;100697.67;1755985;80;20963;-63
2022/02/27 03:36:04;;;;;;;10.25;6.95;;;;;;;2.73;65.13;100700.30;1733568;80;20905;-65
2022/02/27 03:38:30;;;;;;;7.70;5.65;;;;;;;2.75;65.17;100699.73;1743273;82;20981;-64
2022/02/27 03:40:57;;;;;;;10.28;5.92;;;;;;;2.77;65.21;100702.64;1767765;80;21481;-63
2022/02/27 03:43:23;;;;;;;6.83;5.05;;;;;;;2.80;65.19;100704.24;1760991;80;20918;-63
2022/02/27 03:45:49;;;;;;;8.68;5.22;;;;;;;2.81;65.17;100712.05;1751382;80;20996;-64
2022/02/27 03:48:15;;;;;;;9.20;5.22;;;;;;;2.83;65.14;100711.95;1753060;80;20896;-64
2022/02/27 03:50:42;;;;;;;8.13;4.80;;;;;;;2.85;65.11;100717.48;1739903;81;21537;-65
2022/02/27 03:53:08;;;;;;;7.58;4.87;;;;;;;2.87;65.08;100712.98;1736419;80;21108;-64
2022/02/27 03:55:34;;;;;;;8.23;4.90;;;;;;;2.89;65.07;100717.70;1761030;80;20975;-65
2022/02/27 03:58:03;;;;;;;9.15;5.12;;;;;;;2.89;65.03;100715.07;1752651;80;20912;-64
2022/02/27 04:00:29;;;;;;;6.85;4.67;;;;;;;2.89;65.09;100715.53;1756866;80;20963;-65
2022/02/27 04:02:56;;;;;;;6.42;5.12;;;;;;;2.89;65.12;100719.48;1757982;80;20998;-63
2022/02/27 04:05:22;;;;;;;6.90;4.42;;;;;;;2.89;65.17;100722.11;1761108;80;21854;-65
2022/02/27 04:07:48;;;;;;;7.30;4.78;;;;;;;2.89;65.27;100724.73;1743973;80;20994;-64
2022/02/27 04:10:15;;;;;;;5.80;4.22;;;;;;;2.89;65.37;100731.30;1737061;80;21518;-64
2022/02/27 04:12:43;;;;;;;6.97;4.92;;;;;;;2.87;65.49;100725.27;1745311;81;20948;-63
2022/02/27 04:15:10;;;;;;;8.23;5.05;;;;;;;2.88;65.63;100728.28;1752924;81;21453;-63
2022/02/27 04:17:37;;;;;;;7.85;4.70;;;;;;;2.87;65.72;100727.89;1758615;80;21924;-65
2022/02/27 04:20:05;;;;;;;5.53;4.03;;;;;;;2.85;65.81;100729.31;1760908;80;21071;-66
2022/02/27 04:22:32;;;;;;;6.22;4.15;;;;;;;2.84;65.92;100728.11;1766472;80;20931;-65
2022/02/27 04:24:59;;;;;;;7.22;4.65;;;;;;;2.83;66.03;100729.88;1770207;80;20975;-64
2022/02/27 04:27:26;;;;;;;6.42;3.83;;;;;;;2.83;66.09;100731.66;1771083;80;20904;-63
2022/02/27 04:29:53;;;;;;;9.45;4.83;;;;;;;2.80;66.25;100724.80;1757746;80;21106;-67
2022/02/27 04:32:20;;;;;;;7.12;4.35;;;;;;;2.79;66.36;100717.84;1763499;80;20943;-64
2022/02/27 04:34:47;;;;;;;5.62;3.95;;;;;;;2.79;66.49;100720.97;1752259;80;21065;-65
2022/02/27 04:37:13;;;;;;;8.73;4.83;;;;;;;2.78;66.60;100715.32;1761537;80;20982;-66
2022/02/27 04:39:39;;;;;;;7.05;4.10;;;;;;;2.78;66.69;100717.95;1755941;80;20852;-63
2022/02/27 04:42:07;;;;;;;8.03;4.42;;;;;;;2.76;66.80;100714.11;1767662;80;21151;-63
2022/02/27 04:44:33;;;;;;;7.17;4.65;;;;;;;2.74;66.95;100711.20;1769306;80;21010;-63
2022/02/27 04:47:00;;;;;;;6.97;4.75;;;;;;;2.71;67.07;100712.20;1770716;80;20962;-66
2022/02/27 04:49:26;;;;;;;6.87;4.28;;;;;;;2.67;67.25;100710.70;1770802;80;20958;-64
2022/02/27 04:51:53;;;;;;;6.35;4.80;;;;;;;2.66;67.39;100712.12;1763340;80;21067;-63
2022/02/27 04:54:20;;;;;;;8.18;4.72;;;;;;;2.63;67.51;100706.58;1765334;80;21921;-67
2022/02/27 04:56:47;;;;;;;8.90;4.87;;;;;;;2.61;67.65;100711.55;1769376;80;21630;-65
2022/02/27 04:59:13;;;;;;;7.75;4.70;;;;;;;2.59;67.79;100716.02;1770987;80;21610;-65
2022/02/27 05:01:40;;;;;;;8.18;4.67;;;;;;;2.57;67.91;100716.13;1746699;80;20990;-65
2022/02/27 05:04:06;;;;;;;6.92;4.62;;;;;;;2.55;67.98;100716.69;1755412;80;21529;-67
2022/02/27 05:06:33;;;;;;;7.70;4.50;;;;;;;2.49;68.19;100712.63;1762001;80;21132;-66
2022/02/27 05:09:00;;;;;;;6.92;4.55;;;;;;;2.47;68.37;100719.77;1759220;80;20939;-64
2022/02/27 05:11:27;;;;;;;8.80;5.15;;;;;;;2.45;68.61;100722.92;1756444;80;21082;-66
2022/02/27 05:13:53;;;;;;;7.72;5.17;;;;;;;2.45;68.79;100720.30;1763934;80;21007;-64
2022/02/27 05:16:21;;;;;;;7.03;4.90;;;;;;;2.46;68.89;100719.84;1750528;80;20923;-65
2022/02/27 05:18:48;;;;;;;6.05;5.10;;;;;;;2.44;69.00;100717.31;1769580;80;21771;-63
2022/02/27 05:21:14;;;;;;;8.53;5.20;;;;;;;2.43;69.09;100715.61;1758822;80;21038;-65
2022/02/27 05:23:41;;;;;;;6.97;4.92;;;;;;;2.43;69.18;100706.88;1716474;82;21032;-63
2022/02/27 05:26:08;;;;;;;7.28;4.95;;;;;;;2.43;69.29;100713.44;1753040;80;21004;-63
2022/02/27 05:28:34;;;;;;;6.97;4.65;;;;;;;2.42;69.40;100712.59;1757288;80;20919;-63
2022/02/27 05:31:02;;;;;;;7.30;5.90;;;;;;;2.43;69.47;100714.75;1761645;80;21010;-62
2022/02/27 05:33:30;;;;;;;6.50;5.47;;;;;;;2.42;69.55;100708.65;1766372;80;20888;-64
2022/02/27 05:35:57;;;;;;;7.05;5.60;;;;;;;2.41;69.48;100704.35;1771628;80;20920;-58
2022/02/27 05:38:23;;;;;;;7.22;4.85;;;;;;;2.42;69.53;100706.52;1771236;80;21092;-58
2022/02/27 05:40:50;;;;;;;6.55;4.67;;;;;;;2.41;69.62;100709.60;1763655;80;20960;-59
2022/02/27 05:43:16;;;;;;;6.47;5.30;;;;;;;2.42;69.77;100709.96;1764706;80;21160;-58
2022/02/27 05:45:42;;;;;;;9.33;5.37;;;;;;;2.43;69.89;100712.98;1764416;80;20943;-58
2022/02/27 05:48:09;;;;;;;7.25;4.92;;;;;;;2.47;69.98;100711.03;1771109;80;20974;-59
2022/02/27 05:50:35;;;;;;;5.70;4.70;;;;;;;2.49;70.12;100713.95;1759043;80;21074;-58
2022/02/27 05:53:02;;;;;;;9.78;6.08;;;;;;;2.56;70.25;100722.77;1743429;80;20998;-59
2022/02/27 05:55:28;;;;;;;14.05;5.45;;;;;;;2.60;70.27;100722.98;1740230;82;21921;-57
2022/02/27 05:57:55;;;;;;;8.80;4.33;;;;;;;2.65;70.32;100727.03;1770212;80;20947;-59
2022/02/27 06:00:21;;;;;;;7.17;4.97;;;;;;;2.70;70.28;100718.87;1762956;80;21016;-63
2022/02/27 06:02:47;;;;;;;7.80;5.05;;;;;;;2.76;70.22;100722.45;1753517;80;21538;-64
2022/02/27 06:05:14;;;;;;;8.75;4.95;;;;;;;2.80;70.25;100725.27;1756043;80;20939;-63
2022/02/27 06:07:40;;;;;;;7.28;5.05;;;;;;;2.85;70.23;100729.78;1749706;80;22365;-63
2022/02/27 06:10:08;;;;;;;8.38;4.90;;;;;;;2.89;70.20;100722.95;1749764;80;21042;-63
2022/02/27 06:12:35;;;;;;;13.22;5.30;;;;;;;2.92;70.35;100728.00;1746820;80;21056;-65
2022/02/27 06:15:02;;;;;;;9.43;4.45;;;;;;;2.96;70.57;100730.84;1744156;80;20950;-64
2022/02/27 06:17:28;;;;;;;9.43;5.50;;;;;;;3.02;70.69;100728.31;1723478;82;21488;-63
2022/02/27 06:19:55;;;;;;;7.12;4.58;;;;;;;3.06;70.73;100730.66;1754135;80;21155;-63
2022/02/27 06:22:24;;;;;;;9.03;4.30;;;;;;;3.12;70.72;100734.70;1695882;84;20943;-63
2022/02/27 06:24:50;;;;;;;7.97;4.40;;;;;;;3.16;70.65;100736.66;1770370;80;21546;-64
2022/02/27 06:27:16;;;;;;;6.62;5.10;;;;;;;3.20;70.66;100736.87;1763982;80;20899;-64
2022/02/27 06:29:43;;;;;;;8.48;4.97;;;;;;;3.21;70.66;100735.45;1752212;80;20962;-65
2022/02/27 06:32:11;;;;;;;9.65;5.00;;;;;;;3.25;70.62;100744.86;1743940;80;21584;-64
2022/02/27 06:34:37;;;;;;;7.62;5.67;;;;;;;3.27;70.62;100744.28;1755194;80;20947;-68
2022/02/27 06:37:04;;;;;;;13.15;8.53;;;;;;;3.30;70.61;100746.73;1766092;80;21398;-67
2022/02/27 06:39:30;;;;;;;15.85;11.38;;;;;;;3.33;70.20;100746.55;1752826;80;21441;-66
2022/02/27 06:41:58;;;;;;;14.38;10.00;;;;;;;3.36;69.94;100746.84;1752377;80;20912;-64
2022/02/27 06:44:24;;;;;;;14.70;9.18;;;;;;;3.41;69.87;100746.08;1768370;80;21132;-66
2022/02/27 06:46:51;;;;;;;11.28;8.33;;;;;;;3.45;69.79;100747.10;1761146;80;20888;-67
2022/02/27 06:49:17;;;;;;;14.63;7.50;;;;;;;3.50;69.68;100759.97;1745183;81;21062;-63
2022/02/27 06:51:43;;;;;;;8.93;6.50;;;;;;;3.55;69.67;100762.69;1760396;81;21505;-66
2022/02/27 06:54:10;;;;;;;13.28;9.68;;;;;;;3.63;69.23;100762.21;1747129;81;21065;-64
2022/02/27 06:56:36;;;;;;;14.13;11.57;;;;;;;3.65;68.92;100762.48;1755203;80;21256;-66
2022/02/27 06:59:03;;;;;;;12.70;10.35;;;;;;;3.69;68.67;100762.69;1747736;80;20928;-66
2022/02/27 07:01:31;;;;;;;12.58;9.05;;;;;;;3.72;68.31;100763.82;1759658;80;20923;-65
2022/02/27 07:03:57;;;;;;;10.25;7.47;;;;;;;3.74;67.95;100772.45;1762797;80;20982;-63
2022/02/27 07:06:24;;;;;;;9.65;6.83;;;;;;;3.75;67.79;100764.09;1758627;80;21167;-65
2022/02/27 07:08:53;;;;;;;9.95;6.47;;;;;;;3.77;67.73;100765.30;1756178;80;21977;-62
2022/02/27 07:11:19;;;;;;;9.08;6.67;;;;;;;3.79;67.71;100757.69;1734308;80;21034;-65
2022/02/27 07:13:47;;;;;;;11.43;6.30;;;;;;;3.83;67.55;100768.41;1732596;80;21105;-65
2022/02/27 07:16:15;;;;;;;8.28;5.87;;;;;;;3.87;67.49;100767.27;1751507;80;21004;-64
2022/02/27 07:18:43;;;;;;;10.95;6.22;;;;;;;3.89;67.38;100768.00;1756433;80;21023;-63
2022/02/27 07:21:09;;;;;;;8.35;5.53;;;;;;;3.91;67.25;100770.56;1760018;80;21149;-65
2022/02/27 07:23:35;;;;;;;7.17;5.33;;;;;;;3.93;67.22;100771.30;1761694;80;21635;-67
2022/02/27 07:26:02;;;;;;;8.00;5.75;;;;;;;3.94;66.95;100765.92;1753885;80;20990;-64
2022/02/27 07:28:28;;;;;;;8.45;5.60;;;;;;;3.92;66.87;100763.87;1751030;80;21516;-63
2022/02/27 07:30:55;;;;;;;7.15;5.42;;;;;;;3.95;66.87;100768.94;1743014;80;20990;-66
2022/02/27 07:33:23;;;;;;;7.55;5.45;;;;;;;3.98;66.82;100767.91;1757951;81;21332;-65
2022/02/27 07:35:50;;;;;;;9.18;5.60;;;;;;;4.02;66.70;100772.87;1758773;80;21037;-63
2022/02/27 07:38:34;;;;;;;8.00;6.03;;;;;;;4.06;66.62;100768.27;1763273;80;21029;-65
2022/02/27 07:41:01;;;;;;;7.00;5.37;;;;;;;4.09;66.48;100772.84;1763297;80;21046;-65
2022/02/27 07:43:27;;;;;;;10.50;5.65;;;;;;;4.13;66.39;100768.23;1757486;80;21039;-65
2022/02/27 07:45:54;;;;;;;7.65;5.12;;;;;;;4.15;66.26;100768.97;1758465;80;21157;-64
2022/02/27 07:48:23;;;;;;;7.65;5.15;;;;;;;4.15;66.12;100768.51;1753758;80;21024;-64
2022/02/27 07:50:50;;;;;;;7.30;5.47;;;;;;;4.15;66.07;100765.87;1726265;82;21480;-67
2022/02/27 07:53:17;;;;;;;8.60;5.87;;;;;;;4.17;66.01;100756.58;1725310;82;20968;-62
2022/02/27 07:55:43;;;;;;;8.25;6.08;;;;;;;4.21;65.98;100755.42;1767041;80;21474;-67
2022/02/27 07:58:13;;;;;;;11.68;6.33;;;;;;;4.22;65.88;100751.85;1759570;80;21159;-63
2022/02/27 08:00:41;;;;;;;6.83;5.78;;;;;;;4.24;65.92;100747.32;1763444;80;20888;-66
2022/02/27 08:03:10;;;;;;;7.50;6.08;;;;;;;4.29;66.01;100742.59;1762487;80;20888;-64
2022/02/27 08:05:38;;;;;;;9.63;5.37;;;;;;;4.36;65.96;100747.83;1721451;82;20955;-66
2022/02/27 08:08:05;;;;;;;10.03;5.58;;;;;;;4.42;65.97;100742.63;1701736;83;21058;-66
2022/02/27 08:10:33;;;;;;;8.60;5.85;;;;;;;4.52;66.04;100739.30;1719505;82;21074;-65
2022/02/27 08:12:59;;;;;;;11.08;5.60;;;;;;;4.62;66.01;100741.69;1766337;80;20967;-66
2022/02/27 08:15:27;;;;;;;9.83;5.65;;;;;;;4.72;65.81;100742.75;1759731;80;21179;-64
2022/02/27 08:17:54;;;;;;;7.12;5.17;;;;;;;4.82;65.46;100753.05;1753205;80;21581;-63
2022/02/27 08:20:21;;;;;;;6.30;5.17;;;;;;;4.93;65.10;100747.91;1750453;80;20979;-64
2022/02/27 08:22:48;;;;;;;7.53;5.40;;;;;;;5.01;64.79;100747.38;1746081;80;21160;-62
2022/02/27 08:25:15;;;;;;;10.20;6.58;;;;;;;5.09;64.53;100748.17;1739295;80;21011;-62
2022/02/27 08:27:43;;;;;;;10.28;6.60;;;;;;;5.12;64.05;100749.28;1750991;80;20990;-64
2022/02/27 08:30:11;;;;;;;8.53;5.90;;;;;;;5.10;63.93;100754.68;1757549;80;21046;-63
2022/02/27 08:32:38;;;;;;;8.50;5.60;;;;;;;5.13;63.98;100755.80;1763230;80;20920;-63
2022/02/27 08:35:06;;;;;;;9.48;5.83;;;;;;;5.17;63.81;100760.36;1767655;80;21437;-62
2022/02/27 08:37:34;;;;;;;10.95;6.47;;;;;;;5.19;63.78;100763.27;1755367;80;20955;-62
2022/02/27 08:40:01;;;;;;;8.88;5.92;;;;;;;5.24;63.82;100759.84;1755161;80;20891;-62
2022/02/27 08:42:31;;;;;;;9.15;5.37;;;;;;;5.25;63.87;100760.69;1749885;80;20947;-62
2022/02/27 08:44:57;;;;;;;8.70;5.50;;;;;;;5.25;63.95;100762.00;1755081;80;21003;-63
2022/02/27 08:47:24;;;;;;;8.78;5.78;;;;;;;5.24;64.05;100762.47;1746625;80;21163;-59
2022/02/27 08:49:50;;;;;;;8.45;5.10;;;;;;;5.30;64.04;100765.17;1748428;81;20995;-58
2022/02/27 08:52:16;;;;;;;6.58;4.67;;;;;;;5.36;63.68;100765.61;1751865;81;20980;-58
2022/02/27 08:54:43;;;;;;;7.55;4.53;;;;;;;5.34;63.46;100762.70;1746548;81;21002;-58
2022/02/27 08:57:09;;;;;;;7.20;4.85;;;;;;;5.32;63.52;100764.61;1744604;81;20988;-58
2022/02/27 08:59:36;;;;;;;7.85;5.90;;;;;;;5.38;63.76;100766.80;1748550;81;21216;-58
2022/02/27 09:02:03;;;;;;;7.35;5.55;;;;;;;5.46;63.72;100760.52;1751690;81;21066;-57
2022/02/27 09:04:30;;;;;;;6.90;5.10;;;;;;;5.59;63.58;100760.03;1749870;81;21011;-61
2022/02/27 09:06:56;;;;;;;9.30;4.90;;;;;;;5.69;63.32;100758.89;1744360;81;21069;-59
2022/02/27 09:09:24;;;;;;;6.75;5.00;;;;;;;5.71;63.23;100764.44;1741318;81;20923;-60
2022/02/27 09:11:52;;;;;;;6.58;5.28;;;;;;;5.71;63.10;100763.12;1744433;81;21143;-58
2022/02/27 09:14:18;;;;;;;5.40;4.40;;;;;;;5.73;62.97;100761.23;1746644;81;21004;-61
2022/02/27 09:16:44;;;;;;;7.10;4.72;;;;;;;5.82;62.83;100755.75;1746925;81;20991;-65
2022/02/27 09:19:11;;;;;;;7.15;5.22;;;;;;;5.88;62.48;100760.17;1743762;81;22252;-63
2022/02/27 09:21:39;;;;;;;8.10;5.42;;;;;;;5.96;62.31;100751.22;1746711;81;21003;-62
2022/02/27 09:24:08;;;;;;;7.62;4.75;;;;;;;6.01;62.19;100751.73;1759178;81;21339;-65
2022/02/27 09:26:35;;;;;;;6.45;5.08;;;;;;;6.08;62.00;100749.01;1745198;81;22234;-63
2022/02/27 09:29:03;;;;;;;5.40;4.25;;;;;;;6.21;61.83;100748.95;1750576;81;21002;-65
2022/02/27 09:31:30;;;;;;;4.85;4.20;;;;;;;6.33;61.62;100745.43;1741778;81;21564;-64
2022/02/27 09:33:57;;;;;;;6.30;4.22;;;;;;;6.47;61.48;100744.39;1754009;81;21068;-65
2022/02/27 09:36:26;;;;;;;4.72;3.25;;;;;;;6.55;61.63;100743.34;1746905;81;21798;-64
2022/02/27 09:38:52;;;;;;;3.50;2.67;;;;;;;6.69;61.37;100748.45;1745400;81;20978;-63
2022/02/27 09:41:21;;;;;;;4.97;2.50;;;;;;;6.64;60.75;100742.20;1752914;81;21062;-63
2022/02/27 09:43:58;;;;;;;2.22;2.02;;;;;;;6.56;60.67;100752.97;1748486;81;20995;-63
2022/02/27 09:46:26;;;;;;;3.17;2.17;;;;;;;6.48;60.81;100752.22;1750731;81;21015;-63
2022/02/27 09:48:54;;;;;;;2.37;1.67;;;;;;;6.37;60.95;100756.13;1730653;82;21173;-64
2022/02/27 09:51:20;;;;;;;2.92;1.95;;;;;;;6.30;61.31;100755.37;1725764;82;20890;-67
2022/02/27 09:53:48;;;;;;;5.05;2.15;;;;;;;6.26;61.49;100756.06;1716315;82;21018;-63
2022/02/27 09:56:22;;;;;;;3.35;2.37;;;;;;;6.16;61.96;100757.70;1730249;82;21008;-64
2022/02/27 09:58:49;;;;;;;4.65;2.25;;;;;;;6.02;62.42;100764.47;1734978;82;20999;-65
2022/02/27 10:01:18;;;;;;;4.75;3.33;;;;;;;5.83;62.94;100762.27;1735195;82;21060;-65
2022/02/27 10:03:44;;;;;;;12.50;6.90;;;;;;;5.68;63.48;100759.40;1733407;82;21017;-64
2022/02/27 10:06:30;;;;;;;;;;;;;;;;;;;;;
2022/02/27 10:08:47;;;;;;;7.40;4.60;;;;;;;5.56;64.45;100756.28;1720435;82;20923;-63
2022/02/27 10:11:18;;;;;;;9.65;5.97;;;;;;;5.45;64.99;100754.86;1729473;82;21002;-64
2022/02/27 10:13:53;;;;;;;6.40;4.15;;;;;;;5.34;65.52;100753.47;1724558;82;22191;-66
2022/02/27 10:16:22;;;;;;;5.25;3.80;;;;;;;5.26;65.96;100754.00;1703994;82;21472;-63
2022/02/27 10:18:54;;;;;;;4.85;3.27;;;;;;;5.18;66.46;100751.52;1707338;82;20934;-66
2022/02/27 10:21:37;;;;;;;3.62;2.52;;;;;;;5.09;67.45;100754.77;1715670;82;20995;-64
2022/02/27 10:24:11;;;;;;;2.77;2.00;;;;;;;5.02;68.03;100741.64;1737861;82;20922;-65
2022/02/27 10:26:42;;;;;;;2.98;2.45;;;;;;;4.95;68.25;100747.81;1736729;82;21142;-65
2022/02/27 10:29:18;;;;;;;2.80;2.20;;;;;;;4.92;68.35;100745.38;1731918;82;21643;-64
2022/02/27 10:31:52;;;;;;;4.58;2.20;;;;;;;4.95;68.52;100742.55;1734624;82;20903;-64
2022/02/27 10:34:34;;;;;;;4.37;2.33;;;;;;;5.02;68.70;100741.17;1737344;82;20962;-64
2022/02/27 10:37:16;;;;;;;4.50;2.35;;;;;;;5.12;68.77;100738.27;1737520;82;20947;-65
2022/02/27 10:39:48;;;;;;;3.12;2.45;;;;;;;5.28;68.95;100732.77;1736905;82;21156;-65
2022/02/27 10:42:26;;;;;;;3.40;2.20;;;;;;;5.46;68.98;100732.81;1737643;82;20947;-65
2022/02/27 10:45:00;;;;;;;3.17;2.15;;;;;;;5.62;69.04;100736.06;1725885;82;21062;-63
2022/02/27 10:47:30;;;;;;;2.45;1.95;;;;;;;5.78;68.73;100737.13;1734738;81;21025;-66
2022/02/27 10:49:59;;;;;;;2.33;1.80;;;;;;;5.87;68.41;100731.21;1735213;81;21642;-65
2022/02/27 10:52:31;;;;;;;3.12;1.55;;;;;;;5.94;67.69;100727.20;1740465;81;21161;-65
2022/02/27 10:55:04;;;;;;;2.30;1.60;;;;;;;5.98;67.29;100724.22;1738167;81;21564;-63
2022/02/27 10:57:44;;;;;;;3.00;1.42;;;;;;;6.05;67.06;100724.13;1743594;81;21003;-63
2022/02/27 11:00:19;;;;;;;3.95;3.15;;;;;;;6.11;66.79;100725.02;1736694;81;21493;-63
2022/02/27 11:03:04;;;;;;;2.40;2.20;;;;;;;6.15;66.05;100721.17;1732795;81;21640;-62
2022/02/27 11:05:35;;;;;;;4.25;3.08;;;;;;;6.14;65.65;100715.55;1754458;81;21175;-64
2022/02/27 11:08:05;;;;;;;3.67;2.72;;;;;;;6.12;65.18;100714.82;1725646;82;21474;-63
2022/02/27 11:10:39;;;;;;;4.28;2.58;;;;;;;6.11;65.07;100709.16;1745046;81;20852;-63
2022/02/27 11:13:09;;;;;;;4.70;2.62;;;;;;;6.06;64.61;100709.13;1727569;82;21026;-62
2022/02/27 11:15:36;;;;;;;5.22;2.92;;;;;;;5.96;64.64;100706.32;1736160;81;21014;-61
2022/02/27 11:18:04;;;;;;;3.92;2.27;;;;;;;5.90;64.82;100702.80;1758447;81;21137;-64
2022/02/27 11:20:30;;;;;;;3.35;2.47;;;;;;;5.90;65.09;100704.11;1757816;81;20928;-63
2022/02/27 11:22:56;;;;;;;3.50;2.47;;;;;;;5.92;65.27;100695.59;1758746;81;20966;-63
2022/02/27 11:25:27;;;;;;;3.80;2.20;;;;;;;5.95;65.35;100695.84;1750729;81;20954;-63
2022/02/27 11:28:06;;;;;;;2.77;1.95;;;;;;;5.98;65.36;100692.52;1742173;81;21010;-63
2022/02/27 11:30:37;;;;;;;2.98;2.22;;;;;;;6.04;65.25;100685.47;1753259;81;21776;-62